Svitzer Viana — CSZG3 — position and weather

sailwx.info

Track history (hours):
 
Tides and Currents Weather Stations Pressure Air Temp Water Temp Dewpoint Dewpoint Depression Visibility Wind Speed Wind Dir Waves Ship Positions

Svitzer Viana

Last reported at 2017-Dec-11 16:59 UTC. Time now 2017-Dec-14 13:16 UTC.
Position N 38°42' W 009°10'.

Length 28 m; draft 3.8 m.

Type: Tug. MMSI: 263602568.

Date/timePositionNaut miles runAvg speedWind from/ knotsBaromVisibWave heightAir tempDewpointWater temp
2017-Dec-11 16:59N 38°42' W 009°10'0 0.0
2017-Dec-11 16:29N 38°42' W 009°10'0 0.0
2017-Dec-11 15:53N 38°42' W 009°10'0 0.0
2017-Dec-11 15:30N 38°42' W 009°10'0 0.0
2017-Dec-11 15:01N 38°42' W 009°10'0 0.0
2017-Dec-11 14:30N 38°42' W 009°10'2 3.9
2017-Dec-11 14:00N 38°40' W 009°09'0 0.6
2017-Dec-11 13:30N 38°40' W 009°09'0 0.4
2017-Dec-11 12:59N 38°40' W 009°09'0 0.3
2017-Dec-11 12:30N 38°40' W 009°09'0 0.0
2017-Dec-11 12:00N 38°40' W 009°09'0 0.0
2017-Dec-11 11:30N 38°40' W 009°09'0 0.5
2017-Dec-11 10:55N 38°40' W 009°09'0 0.1
2017-Dec-11 10:30N 38°40' W 009°09'0 0.1
2017-Dec-11 10:00N 38°40' W 009°09'0 0.5
2017-Dec-11 09:30N 38°40' W 009°09'0 0.3
2017-Dec-11 09:00N 38°40' W 009°09'0 0.3
2017-Dec-11 08:29N 38°40' W 009°09'0 0.1
2017-Dec-11 07:59N 38°40' W 009°09'0 0.8
2017-Dec-11 07:30N 38°40' W 009°08'1 1.5
2017-Dec-11 07:00N 38°41' W 009°08'1 2.6
2017-Dec-11 06:29N 38°42' W 009°10'0 0.0
2017-Dec-11 05:59N 38°42' W 009°10'0 0.0
2017-Dec-11 05:28N 38°42' W 009°10'0 0.0
2017-Dec-11 04:58N 38°42' W 009°10'0 0.0
2017-Dec-11 04:30N 38°42' W 009°10'0 0.0
2017-Dec-11 04:00N 38°42' W 009°10'0 0.0
2017-Dec-11 03:30N 38°42' W 009°10'0 0.0
2017-Dec-11 02:54N 38°42' W 009°10'0 0.0
2017-Dec-11 02:29N 38°42' W 009°10'0 0.0
2017-Dec-11 01:58N 38°42' W 009°10'0 0.0
2017-Dec-11 01:25N 38°42' W 009°10'0 0.0
2017-Dec-11 01:00N 38°42' W 009°10'0 0.0
2017-Dec-11 00:27N 38°42' W 009°10'0 0.0
2017-Dec-11 00:01N 38°42' W 009°10'0 0.0
2017-Dec-10 23:22N 38°42' W 009°10'0 0.0
2017-Dec-10 22:59N 38°42' W 009°10'0 0.0
2017-Dec-10 22:30N 38°42' W 009°10'0 0.0
2017-Dec-10 21:58N 38°42' W 009°10'0 0.0
2017-Dec-10 21:30N 38°42' W 009°10'0 0.0
2017-Dec-10 20:53N 38°42' W 009°10'0 0.0
2017-Dec-10 20:23N 38°42' W 009°10'0 0.0
2017-Dec-10 19:48N 38°42' W 009°10'0 0.0
2017-Dec-10 19:28N 38°42' W 009°10'0 0.0
2017-Dec-10 19:00N 38°42' W 009°10'0 0.0
2017-Dec-10 18:30N 38°42' W 009°10'0 0.0
2017-Dec-10 17:59N 38°42' W 009°10'0 0.0
2017-Dec-10 17:30N 38°42' W 009°10'0 0.0
2017-Dec-10 17:00N 38°42' W 009°10'0 0.0
2017-Dec-10 16:27N 38°42' W 009°10'0 0.0
2017-Dec-10 15:59N 38°42' W 009°10'0 0.0
2017-Dec-10 15:24N 38°42' W 009°10'0 0.0
2017-Dec-10 14:58N 38°42' W 009°10'0 0.0
2017-Dec-10 14:30N 38°42' W 009°10'0 0.0
2017-Dec-10 13:55N 38°42' W 009°10'0 0.0
2017-Dec-10 13:27N 38°42' W 009°10'0 0.0
2017-Dec-10 13:00N 38°42' W 009°10'0 0.0
2017-Dec-10 12:23N 38°42' W 009°10'0 0.0
2017-Dec-10 11:56N 38°42' W 009°10'0 0.0
2017-Dec-10 11:17N 38°42' W 009°10'0 0.0
2017-Dec-10 10:59N 38°42' W 009°10'0 0.0
2017-Dec-10 10:24N 38°42' W 009°10'0 0.0
2017-Dec-10 10:00N 38°42' W 009°10'0 0.0
2017-Dec-10 09:30N 38°42' W 009°10'0 0.0
2017-Dec-10 08:55N 38°42' W 009°10'0 0.0
2017-Dec-10 08:31N 38°42' W 009°10'0 0.0
2017-Dec-10 07:59N 38°42' W 009°10'0 0.0
2017-Dec-10 07:30N 38°42' W 009°10'0 0.0
2017-Dec-10 06:56N 38°42' W 009°10'0 0.0
2017-Dec-10 06:29N 38°42' W 009°10'0 0.0
2017-Dec-10 05:56N 38°42' W 009°10'0 0.0
2017-Dec-10 05:29N 38°42' W 009°10'0 0.0
2017-Dec-10 05:00N 38°42' W 009°10'0 0.0
2017-Dec-10 04:30N 38°42' W 009°10'0 0.0
2017-Dec-10 03:59N 38°42' W 009°10'0 0.0
2017-Dec-10 03:29N 38°42' W 009°10'0 0.0
2017-Dec-10 03:00N 38°42' W 009°10'0 0.0
2017-Dec-10 02:30N 38°42' W 009°10'4 7.3
2017-Dec-10 02:00N 38°41' W 009°14'0 0.5
2017-Dec-10 01:29N 38°41' W 009°14'0 0.5
2017-Dec-10 01:00N 38°41' W 009°14'2 4.4
2017-Dec-10 00:30N 38°41' W 009°12'2 2.6
2017-Dec-09 23:51N 38°42' W 009°10'0 0.0
2017-Dec-09 23:30N 38°42' W 009°10'0 0.0
2017-Dec-09 23:00N 38°42' W 009°10'0 0.0
2017-Dec-09 22:29N 38°42' W 009°10'0 0.0
2017-Dec-09 22:01N 38°42' W 009°10'0 0.0
2017-Dec-09 21:28N 38°42' W 009°10'1 2.7
2017-Dec-09 21:00N 38°41' W 009°11'0 0.9
2017-Dec-09 20:30N 38°41' W 009°11'0 0.2
2017-Dec-09 20:00N 38°41' W 009°11'0 0.7
2017-Dec-09 19:25N 38°41' W 009°12'2 3.8
2017-Dec-09 19:00N 38°41' W 009°13'2 4.8
2017-Dec-09 18:30N 38°42' W 009°11'1 1.8
2017-Dec-09 18:00N 38°42' W 009°10'0 0.0
2017-Dec-09 17:30N 38°42' W 009°10'0 0.0
2017-Dec-09 17:00N 38°42' W 009°10'0 0.0
2017-Dec-09 16:23N 38°42' W 009°10'0 0.0
2017-Dec-09 15:54N 38°42' W 009°10'0 0.6
2017-Dec-09 15:29N 38°42' W 009°10'1 2.1
2017-Dec-09 15:00N 38°41' W 009°11'1 2.2
2017-Dec-09 14:26N 38°42' W 009°10'0 0.0
2017-Dec-09 13:58N 38°42' W 009°10'0 0.0
2017-Dec-09 13:30N 38°42' W 009°10'0 0.0
2017-Dec-09 13:00N 38°42' W 009°10'0 0.0
2017-Dec-09 12:29N 38°42' W 009°10'0 0.0
2017-Dec-09 11:59N 38°42' W 009°10'0 0.0
2017-Dec-09 11:26N 38°42' W 009°10'0 0.0
2017-Dec-09 10:07N 38°42' W 009°10'0 0.0
2017-Dec-09 09:48N 38°42' W 009°10'0 0.3
2017-Dec-09 09:30N 38°42' W 009°10'1 1.6
2017-Dec-09 09:00N 38°42' W 009°11'1 1.8
2017-Dec-09 08:30N 38°42' W 009°10'0 0.1
2017-Dec-09 08:00N 38°42' W 009°10'0 0.0
2017-Dec-09 07:26N 38°42' W 009°10'0 0.0
2017-Dec-09 06:53N 38°42' W 009°10'0 0.0
2017-Dec-09 06:29N 38°42' W 009°10'0 0.0
2017-Dec-09 05:58N 38°42' W 009°10'0 0.0
2017-Dec-09 05:29N 38°42' W 009°10'0 0.0
2017-Dec-09 04:59N 38°42' W 009°10'0 0.0
2017-Dec-09 04:30N 38°42' W 009°10'0 0.0
2017-Dec-09 04:00N 38°42' W 009°10'0 0.0
2017-Dec-09 03:30N 38°42' W 009°10'0 0.0
2017-Dec-09 02:58N 38°42' W 009°10'0 0.0
2017-Dec-09 02:30N 38°42' W 009°10'0 0.0
2017-Dec-09 02:00N 38°42' W 009°10'0 0.0
2017-Dec-09 01:29N 38°42' W 009°10'0 0.0
2017-Dec-09 01:00N 38°42' W 009°10'0 0.0
2017-Dec-09 00:30N 38°42' W 009°10'0 0.0
2017-Dec-09 00:00N 38°42' W 009°10'0 0.0
2017-Dec-08 23:30N 38°42' W 009°10'0 0.0
2017-Dec-08 22:59N 38°42' W 009°10'0 0.0
2017-Dec-08 22:30N 38°42' W 009°10'0 0.0
2017-Dec-08 22:00N 38°42' W 009°10'0 0.0
2017-Dec-08 21:23N 38°42' W 009°10'0 0.0
2017-Dec-08 20:57N 38°42' W 009°10'0 0.0
2017-Dec-08 20:28N 38°42' W 009°10'0 0.0
2017-Dec-08 19:58N 38°42' W 009°10'0 0.0
2017-Dec-08 19:29N 38°42' W 009°10'0 0.0
2017-Dec-08 18:55N 38°42' W 009°10'0 0.0
2017-Dec-08 18:24N 38°42' W 009°10'0 0.0
2017-Dec-08 17:57N 38°42' W 009°10'0 0.0
2017-Dec-08 17:30N 38°42' W 009°10'0 0.0
2017-Dec-08 17:00N 38°42' W 009°10'0 0.0
2017-Dec-08 16:30N 38°42' W 009°10'0 0.0
2017-Dec-08 16:00N 38°42' W 009°10'0 0.0
2017-Dec-08 15:27N 38°42' W 009°10'0 0.0
2017-Dec-08 14:59N 38°42' W 009°10'0 0.0
2017-Dec-08 14:30N 38°42' W 009°10'0 0.0
2017-Dec-08 13:59N 38°42' W 009°10'0 0.0
2017-Dec-08 13:28N 38°42' W 009°10'0 0.0
2017-Dec-08 12:58N 38°42' W 009°10'0 0.0
2017-Dec-08 12:28N 38°42' W 009°10'0 0.0
2017-Dec-08 12:00N 38°42' W 009°10'0 0.0
2017-Dec-08 11:25N 38°42' W 009°10'0 0.0
2017-Dec-08 10:56N 38°42' W 009°10'0 0.0
2017-Dec-08 10:30N 38°42' W 009°10'0 0.0
2017-Dec-08 09:57N 38°42' W 009°10'0 0.0
2017-Dec-08 09:30N 38°42' W 009°10'0 0.0
2017-Dec-08 08:58N 38°42' W 009°10'0 0.0
2017-Dec-08 08:30N 38°42' W 009°10'0 0.0
2017-Dec-08 08:01N 38°42' W 009°10'3 5.7
2017-Dec-08 07:30N 38°44' W 009°06'1 2.2
2017-Dec-08 06:54N 38°42' W 009°07'1 2.2
2017-Dec-08 06:30N 38°42' W 009°08'1 1.6
2017-Dec-08 05:55N 38°42' W 009°10'0 0.0
2017-Dec-08 05:23N 38°42' W 009°10'0 0.0
2017-Dec-08 05:00N 38°42' W 009°10'0 0.0
2017-Dec-08 04:29N 38°42' W 009°10'0 0.0
2017-Dec-08 03:59N 38°42' W 009°10'0 0.0
2017-Dec-08 03:24N 38°42' W 009°10'0 0.0
2017-Dec-08 02:53N 38°42' W 009°10'0 0.0
2017-Dec-08 02:29N 38°42' W 009°10'0 0.0
2017-Dec-08 01:55N 38°42' W 009°10'0 0.0
2017-Dec-08 01:24N 38°42' W 009°10'0 0.0
2017-Dec-08 00:55N 38°42' W 009°10'0 0.0
2017-Dec-08 00:29N 38°42' W 009°10'0 0.0
2017-Dec-07 23:58N 38°42' W 009°10'0 0.0
2017-Dec-07 23:28N 38°42' W 009°10'0 0.0
2017-Dec-07 22:59N 38°42' W 009°10'0 0.0
2017-Dec-07 22:27N 38°42' W 009°10'0 0.0
2017-Dec-07 21:57N 38°42' W 009°10'0 0.0
2017-Dec-07 21:30N 38°42' W 009°10'0 0.0
2017-Dec-07 20:56N 38°42' W 009°10'0 0.0
2017-Dec-07 20:29N 38°42' W 009°10'0 0.0
2017-Dec-07 19:59N 38°42' W 009°10'0 0.0
2017-Dec-07 19:23N 38°42' W 009°10'0 0.0
2017-Dec-07 19:00N 38°42' W 009°10'0 0.0
2017-Dec-07 18:29N 38°42' W 009°10'0 0.0
2017-Dec-07 17:59N 38°42' W 009°10'0 0.0
2017-Dec-07 17:30N 38°42' W 009°10'0 0.0
2017-Dec-07 17:00N 38°42' W 009°10'3 5.6
2017-Dec-07 16:30N 38°43' W 009°06'0 0.9
2017-Dec-07 15:58N 38°43' W 009°07'2 4.4
2017-Dec-07 15:27N 38°42' W 009°09'0 0.4
2017-Dec-07 14:55N 38°42' W 009°10'0 0.0
2017-Dec-07 14:30N 38°42' W 009°10'0 0.0
2017-Dec-07 14:00N 38°42' W 009°10'0 0.0
2017-Dec-07 13:28N 38°42' W 009°10'0 0.0
2017-Dec-07 12:54N 38°42' W 009°10'0 0.0
2017-Dec-07 12:13N 38°42' W 009°10'0 0.0
2017-Dec-07 12:00N 38°42' W 009°10'0 0.0
2017-Dec-07 11:30N 38°42' W 009°10'0 0.0
2017-Dec-07 10:52N 38°42' W 009°10'0 0.0
2017-Dec-07 10:26N 38°42' W 009°10'0 0.0
2017-Dec-07 09:57N 38°42' W 009°10'0 0.0
2017-Dec-07 09:21N 38°42' W 009°10'0 0.1
2017-Dec-07 09:00N 38°42' W 009°10'0 1.0
2017-Dec-07 08:30N 38°42' W 009°10'0 0.8
2017-Dec-07 07:59N 38°42' W 009°11'1 1.7
2017-Dec-07 07:27N 38°42' W 009°10'0 0.0
2017-Dec-07 07:00N 38°42' W 009°10'0 0.0
2017-Dec-07 06:29N 38°42' W 009°10'0 0.0
2017-Dec-07 05:57N 38°42' W 009°10'0 0.0
2017-Dec-07 05:30N 38°42' W 009°10'0 0.0
2017-Dec-07 05:00N 38°42' W 009°10'0 0.0
2017-Dec-07 04:30N 38°42' W 009°10'0 0.0
2017-Dec-07 04:00N 38°42' W 009°10'0 0.0
2017-Dec-07 03:26N 38°42' W 009°10'0 0.0
2017-Dec-07 03:00N 38°42' W 009°10'0 0.0
2017-Dec-07 02:30N 38°42' W 009°10'0 0.0
2017-Dec-07 02:00N 38°42' W 009°10'0 0.0
2017-Dec-07 01:30N 38°42' W 009°10'0 0.0
2017-Dec-07 00:58N 38°42' W 009°10'0 0.0
2017-Dec-07 00:27N 38°42' W 009°10'0 0.0
2017-Dec-06 23:58N 38°42' W 009°10'0 0.0
2017-Dec-06 23:30N 38°42' W 009°10'0 0.0
2017-Dec-06 22:55N 38°42' W 009°10'0 0.0
2017-Dec-06 22:29N 38°42' W 009°10'0 0.0
2017-Dec-06 21:47N 38°42' W 009°10'0 0.0
2017-Dec-06 21:20N 38°42' W 009°10'0 0.0
2017-Dec-06 21:01N 38°42' W 009°10'  
2017-Dec-04 10:24N 38°42' W 009°10'0 0.3
2017-Dec-04 09:56N 38°42' W 009°09'2 4.4
2017-Dec-04 09:30N 38°43' W 009°07'0 0.3
2017-Dec-04 09:00N 38°43' W 009°07'2 1.2
2017-Dec-04 07:26N 38°42' W 009°10'0 0.0
2017-Dec-04 06:48N 38°42' W 009°10'0 0.0
2017-Dec-04 06:28N 38°42' W 009°10'0 0.0
2017-Dec-04 05:54N 38°42' W 009°10'0 0.0
2017-Dec-04 05:29N 38°42' W 009°10'0 0.0
2017-Dec-04 04:43N 38°42' W 009°10'0 0.0
2017-Dec-04 04:28N 38°42' W 009°10'0 0.0
2017-Dec-03 04:29N 38°42' W 009°10'0 0.0
2017-Dec-03 03:59N 38°42' W 009°10'0 0.0
2017-Dec-03 03:25N 38°42' W 009°10'0 0.0
2017-Dec-03 02:59N 38°42' W 009°10'0 0.0
2017-Dec-03 02:30N 38°42' W 009°10'0 0.0
2017-Dec-03 01:44N 38°42' W 009°10'0 0.0
2017-Dec-03 01:28N 38°42' W 009°10'0 0.0
2017-Dec-03 00:47N 38°42' W 009°10'0 0.0
2017-Dec-03 00:28N 38°42' W 009°10'0 0.0
2017-Dec-02 03:25N 38°42' W 009°10'0 0.0
2017-Dec-02 02:57N 38°42' W 009°10'0 0.0
2017-Dec-02 02:30N 38°42' W 009°10'0 0.0
2017-Dec-02 01:45N 38°42' W 009°10'0 0.0
2017-Dec-02 01:15N 38°42' W 009°10'  
Track history (hours):
 
Tides and Currents Weather Stations Pressure Air Temp Water Temp Dewpoint Dewpoint Depression Visibility Wind Speed Wind Dir Waves Ship Positions

Svitzer Viana

Last reported at 2017-Dec-11 16:59 UTC. Time now 2017-Dec-14 13:16 UTC.
Position N 38°42' W 009°10'.

Length 28 m; draft 3.8 m.

Type: Tug. MMSI: 263602568.

Date/timePositionNaut miles runAvg speedWind from/ knotsBaromVisibWave heightAir tempDewpointWater temp
2017-Dec-11 16:59N 38°42' W 009°10'0 0.0
2017-Dec-11 16:29N 38°42' W 009°10'0 0.0
2017-Dec-11 15:53N 38°42' W 009°10'0 0.0
2017-Dec-11 15:30N 38°42' W 009°10'0 0.0
2017-Dec-11 15:01N 38°42' W 009°10'0 0.0
2017-Dec-11 14:30N 38°42' W 009°10'2 3.9
2017-Dec-11 14:00N 38°40' W 009°09'0 0.6
2017-Dec-11 13:30N 38°40' W 009°09'0 0.4
2017-Dec-11 12:59N 38°40' W 009°09'0 0.3
2017-Dec-11 12:30N 38°40' W 009°09'0 0.0
2017-Dec-11 12:00N 38°40' W 009°09'0 0.0
2017-Dec-11 11:30N 38°40' W 009°09'0 0.5
2017-Dec-11 10:55N 38°40' W 009°09'0 0.1
2017-Dec-11 10:30N 38°40' W 009°09'0 0.1
2017-Dec-11 10:00N 38°40' W 009°09'0 0.5
2017-Dec-11 09:30N 38°40' W 009°09'0 0.3
2017-Dec-11 09:00N 38°40' W 009°09'0 0.3
2017-Dec-11 08:29N 38°40' W 009°09'0 0.1
2017-Dec-11 07:59N 38°40' W 009°09'0 0.8
2017-Dec-11 07:30N 38°40' W 009°08'1 1.5
2017-Dec-11 07:00N 38°41' W 009°08'1 2.6
2017-Dec-11 06:29N 38°42' W 009°10'0 0.0
2017-Dec-11 05:59N 38°42' W 009°10'0 0.0
2017-Dec-11 05:28N 38°42' W 009°10'0 0.0
2017-Dec-11 04:58N 38°42' W 009°10'0 0.0
2017-Dec-11 04:30N 38°42' W 009°10'0 0.0
2017-Dec-11 04:00N 38°42' W 009°10'0 0.0
2017-Dec-11 03:30N 38°42' W 009°10'0 0.0
2017-Dec-11 02:54N 38°42' W 009°10'0 0.0
2017-Dec-11 02:29N 38°42' W 009°10'0 0.0
2017-Dec-11 01:58N 38°42' W 009°10'0 0.0
2017-Dec-11 01:25N 38°42' W 009°10'0 0.0
2017-Dec-11 01:00N 38°42' W 009°10'0 0.0
2017-Dec-11 00:27N 38°42' W 009°10'0 0.0
2017-Dec-11 00:01N 38°42' W 009°10'0 0.0
2017-Dec-10 23:22N 38°42' W 009°10'0 0.0
2017-Dec-10 22:59N 38°42' W 009°10'0 0.0
2017-Dec-10 22:30N 38°42' W 009°10'0 0.0
2017-Dec-10 21:58N 38°42' W 009°10'0 0.0
2017-Dec-10 21:30N 38°42' W 009°10'0 0.0
2017-Dec-10 20:53N 38°42' W 009°10'0 0.0
2017-Dec-10 20:23N 38°42' W 009°10'0 0.0
2017-Dec-10 19:48N 38°42' W 009°10'0 0.0
2017-Dec-10 19:28N 38°42' W 009°10'0 0.0
2017-Dec-10 19:00N 38°42' W 009°10'0 0.0
2017-Dec-10 18:30N 38°42' W 009°10'0 0.0
2017-Dec-10 17:59N 38°42' W 009°10'0 0.0
2017-Dec-10 17:30N 38°42' W 009°10'0 0.0
2017-Dec-10 17:00N 38°42' W 009°10'0 0.0
2017-Dec-10 16:27N 38°42' W 009°10'0 0.0
2017-Dec-10 15:59N 38°42' W 009°10'0 0.0
2017-Dec-10 15:24N 38°42' W 009°10'0 0.0
2017-Dec-10 14:58N 38°42' W 009°10'0 0.0
2017-Dec-10 14:30N 38°42' W 009°10'0 0.0
2017-Dec-10 13:55N 38°42' W 009°10'0 0.0
2017-Dec-10 13:27N 38°42' W 009°10'0 0.0
2017-Dec-10 13:00N 38°42' W 009°10'0 0.0
2017-Dec-10 12:23N 38°42' W 009°10'0 0.0
2017-Dec-10 11:56N 38°42' W 009°10'0 0.0
2017-Dec-10 11:17N 38°42' W 009°10'0 0.0
2017-Dec-10 10:59N 38°42' W 009°10'0 0.0
2017-Dec-10 10:24N 38°42' W 009°10'0 0.0
2017-Dec-10 10:00N 38°42' W 009°10'0 0.0
2017-Dec-10 09:30N 38°42' W 009°10'0 0.0
2017-Dec-10 08:55N 38°42' W 009°10'0 0.0
2017-Dec-10 08:31N 38°42' W 009°10'0 0.0
2017-Dec-10 07:59N 38°42' W 009°10'0 0.0
2017-Dec-10 07:30N 38°42' W 009°10'0 0.0
2017-Dec-10 06:56N 38°42' W 009°10'0 0.0
2017-Dec-10 06:29N 38°42' W 009°10'0 0.0
2017-Dec-10 05:56N 38°42' W 009°10'0 0.0
2017-Dec-10 05:29N 38°42' W 009°10'0 0.0
2017-Dec-10 05:00N 38°42' W 009°10'0 0.0
2017-Dec-10 04:30N 38°42' W 009°10'0 0.0
2017-Dec-10 03:59N 38°42' W 009°10'0 0.0
2017-Dec-10 03:29N 38°42' W 009°10'0 0.0
2017-Dec-10 03:00N 38°42' W 009°10'0 0.0
2017-Dec-10 02:30N 38°42' W 009°10'4 7.3
2017-Dec-10 02:00N 38°41' W 009°14'0 0.5
2017-Dec-10 01:29N 38°41' W 009°14'0 0.5
2017-Dec-10 01:00N 38°41' W 009°14'2 4.4
2017-Dec-10 00:30N 38°41' W 009°12'2 2.6
2017-Dec-09 23:51N 38°42' W 009°10'0 0.0
2017-Dec-09 23:30N 38°42' W 009°10'0 0.0
2017-Dec-09 23:00N 38°42' W 009°10'0 0.0
2017-Dec-09 22:29N 38°42' W 009°10'0 0.0
2017-Dec-09 22:01N 38°42' W 009°10'0 0.0
2017-Dec-09 21:28N 38°42' W 009°10'1 2.7
2017-Dec-09 21:00N 38°41' W 009°11'0 0.9
2017-Dec-09 20:30N 38°41' W 009°11'0 0.2
2017-Dec-09 20:00N 38°41' W 009°11'0 0.7
2017-Dec-09 19:25N 38°41' W 009°12'2 3.8
2017-Dec-09 19:00N 38°41' W 009°13'2 4.8
2017-Dec-09 18:30N 38°42' W 009°11'1 1.8
2017-Dec-09 18:00N 38°42' W 009°10'0 0.0
2017-Dec-09 17:30N 38°42' W 009°10'0 0.0
2017-Dec-09 17:00N 38°42' W 009°10'0 0.0
2017-Dec-09 16:23N 38°42' W 009°10'0 0.0
2017-Dec-09 15:54N 38°42' W 009°10'0 0.6
2017-Dec-09 15:29N 38°42' W 009°10'1 2.1
2017-Dec-09 15:00N 38°41' W 009°11'1 2.2
2017-Dec-09 14:26N 38°42' W 009°10'0 0.0
2017-Dec-09 13:58N 38°42' W 009°10'0 0.0
2017-Dec-09 13:30N 38°42' W 009°10'0 0.0
2017-Dec-09 13:00N 38°42' W 009°10'0 0.0
2017-Dec-09 12:29N 38°42' W 009°10'0 0.0
2017-Dec-09 11:59N 38°42' W 009°10'0 0.0
2017-Dec-09 11:26N 38°42' W 009°10'0 0.0
2017-Dec-09 10:07N 38°42' W 009°10'0 0.0
2017-Dec-09 09:48N 38°42' W 009°10'0 0.3
2017-Dec-09 09:30N 38°42' W 009°10'1 1.6
2017-Dec-09 09:00N 38°42' W 009°11'1 1.8
2017-Dec-09 08:30N 38°42' W 009°10'0 0.1
2017-Dec-09 08:00N 38°42' W 009°10'0 0.0
2017-Dec-09 07:26N 38°42' W 009°10'0 0.0
2017-Dec-09 06:53N 38°42' W 009°10'0 0.0
2017-Dec-09 06:29N 38°42' W 009°10'0 0.0
2017-Dec-09 05:58N 38°42' W 009°10'0 0.0
2017-Dec-09 05:29N 38°42' W 009°10'0 0.0
2017-Dec-09 04:59N 38°42' W 009°10'0 0.0
2017-Dec-09 04:30N 38°42' W 009°10'0 0.0
2017-Dec-09 04:00N 38°42' W 009°10'0 0.0
2017-Dec-09 03:30N 38°42' W 009°10'0 0.0
2017-Dec-09 02:58N 38°42' W 009°10'0 0.0
2017-Dec-09 02:30N 38°42' W 009°10'0 0.0
2017-Dec-09 02:00N 38°42' W 009°10'0 0.0
2017-Dec-09 01:29N 38°42' W 009°10'0 0.0
2017-Dec-09 01:00N 38°42' W 009°10'0 0.0
2017-Dec-09 00:30N 38°42' W 009°10'0 0.0
2017-Dec-09 00:00N 38°42' W 009°10'0 0.0
2017-Dec-08 23:30N 38°42' W 009°10'0 0.0
2017-Dec-08 22:59N 38°42' W 009°10'0 0.0
2017-Dec-08 22:30N 38°42' W 009°10'0 0.0
2017-Dec-08 22:00N 38°42' W 009°10'0 0.0
2017-Dec-08 21:23N 38°42' W 009°10'0 0.0
2017-Dec-08 20:57N 38°42' W 009°10'0 0.0
2017-Dec-08 20:28N 38°42' W 009°10'0 0.0
2017-Dec-08 19:58N 38°42' W 009°10'0 0.0
2017-Dec-08 19:29N 38°42' W 009°10'0 0.0
2017-Dec-08 18:55N 38°42' W 009°10'0 0.0
2017-Dec-08 18:24N 38°42' W 009°10'0 0.0
2017-Dec-08 17:57N 38°42' W 009°10'0 0.0
2017-Dec-08 17:30N 38°42' W 009°10'0 0.0
2017-Dec-08 17:00N 38°42' W 009°10'0 0.0
2017-Dec-08 16:30N 38°42' W 009°10'0 0.0
2017-Dec-08 16:00N 38°42' W 009°10'0 0.0
2017-Dec-08 15:27N 38°42' W 009°10'0 0.0
2017-Dec-08 14:59N 38°42' W 009°10'0 0.0
2017-Dec-08 14:30N 38°42' W 009°10'0 0.0
2017-Dec-08 13:59N 38°42' W 009°10'0 0.0
2017-Dec-08 13:28N 38°42' W 009°10'0 0.0
2017-Dec-08 12:58N 38°42' W 009°10'0 0.0
2017-Dec-08 12:28N 38°42' W 009°10'0 0.0
2017-Dec-08 12:00N 38°42' W 009°10'0 0.0
2017-Dec-08 11:25N 38°42' W 009°10'0 0.0
2017-Dec-08 10:56N 38°42' W 009°10'0 0.0
2017-Dec-08 10:30N 38°42' W 009°10'0 0.0
2017-Dec-08 09:57N 38°42' W 009°10'0 0.0
2017-Dec-08 09:30N 38°42' W 009°10'0 0.0
2017-Dec-08 08:58N 38°42' W 009°10'0 0.0
2017-Dec-08 08:30N 38°42' W 009°10'0 0.0
2017-Dec-08 08:01N 38°42' W 009°10'3 5.7
2017-Dec-08 07:30N 38°44' W 009°06'1 2.2
2017-Dec-08 06:54N 38°42' W 009°07'1 2.2
2017-Dec-08 06:30N 38°42' W 009°08'1 1.6
2017-Dec-08 05:55N 38°42' W 009°10'0 0.0
2017-Dec-08 05:23N 38°42' W 009°10'0 0.0
2017-Dec-08 05:00N 38°42' W 009°10'0 0.0
2017-Dec-08 04:29N 38°42' W 009°10'0 0.0
2017-Dec-08 03:59N 38°42' W 009°10'0 0.0
2017-Dec-08 03:24N 38°42' W 009°10'0 0.0
2017-Dec-08 02:53N 38°42' W 009°10'0 0.0
2017-Dec-08 02:29N 38°42' W 009°10'0 0.0
2017-Dec-08 01:55N 38°42' W 009°10'0 0.0
2017-Dec-08 01:24N 38°42' W 009°10'0 0.0
2017-Dec-08 00:55N 38°42' W 009°10'0 0.0
2017-Dec-08 00:29N 38°42' W 009°10'0 0.0
2017-Dec-07 23:58N 38°42' W 009°10'0 0.0
2017-Dec-07 23:28N 38°42' W 009°10'0 0.0
2017-Dec-07 22:59N 38°42' W 009°10'0 0.0
2017-Dec-07 22:27N 38°42' W 009°10'0 0.0
2017-Dec-07 21:57N 38°42' W 009°10'0 0.0
2017-Dec-07 21:30N 38°42' W 009°10'0 0.0
2017-Dec-07 20:56N 38°42' W 009°10'0 0.0
2017-Dec-07 20:29N 38°42' W 009°10'0 0.0
2017-Dec-07 19:59N 38°42' W 009°10'0 0.0
2017-Dec-07 19:23N 38°42' W 009°10'0 0.0
2017-Dec-07 19:00N 38°42' W 009°10'0 0.0
2017-Dec-07 18:29N 38°42' W 009°10'0 0.0
2017-Dec-07 17:59N 38°42' W 009°10'0 0.0
2017-Dec-07 17:30N 38°42' W 009°10'0 0.0
2017-Dec-07 17:00N 38°42' W 009°10'3 5.6
2017-Dec-07 16:30N 38°43' W 009°06'0 0.9
2017-Dec-07 15:58N 38°43' W 009°07'2 4.4
2017-Dec-07 15:27N 38°42' W 009°09'0 0.4
2017-Dec-07 14:55N 38°42' W 009°10'0 0.0
2017-Dec-07 14:30N 38°42' W 009°10'0 0.0
2017-Dec-07 14:00N 38°42' W 009°10'0 0.0
2017-Dec-07 13:28N 38°42' W 009°10'0 0.0
2017-Dec-07 12:54N 38°42' W 009°10'0 0.0
2017-Dec-07 12:13N 38°42' W 009°10'0 0.0
2017-Dec-07 12:00N 38°42' W 009°10'0 0.0
2017-Dec-07 11:30N 38°42' W 009°10'0 0.0
2017-Dec-07 10:52N 38°42' W 009°10'0 0.0
2017-Dec-07 10:26N 38°42' W 009°10'0 0.0
2017-Dec-07 09:57N 38°42' W 009°10'0 0.0
2017-Dec-07 09:21N 38°42' W 009°10'0 0.1
2017-Dec-07 09:00N 38°42' W 009°10'0 1.0
2017-Dec-07 08:30N 38°42' W 009°10'0 0.8
2017-Dec-07 07:59N 38°42' W 009°11'1 1.7
2017-Dec-07 07:27N 38°42' W 009°10'0 0.0
2017-Dec-07 07:00N 38°42' W 009°10'0 0.0
2017-Dec-07 06:29N 38°42' W 009°10'0 0.0
2017-Dec-07 05:57N 38°42' W 009°10'0 0.0
2017-Dec-07 05:30N 38°42' W 009°10'0 0.0
2017-Dec-07 05:00N 38°42' W 009°10'0 0.0
2017-Dec-07 04:30N 38°42' W 009°10'0 0.0
2017-Dec-07 04:00N 38°42' W 009°10'0 0.0
2017-Dec-07 03:26N 38°42' W 009°10'0 0.0
2017-Dec-07 03:00N 38°42' W 009°10'0 0.0
2017-Dec-07 02:30N 38°42' W 009°10'0 0.0
2017-Dec-07 02:00N 38°42' W 009°10'0 0.0
2017-Dec-07 01:30N 38°42' W 009°10'0 0.0
2017-Dec-07 00:58N 38°42' W 009°10'0 0.0
2017-Dec-07 00:27N 38°42' W 009°10'0 0.0
2017-Dec-06 23:58N 38°42' W 009°10'0 0.0
2017-Dec-06 23:30N 38°42' W 009°10'0 0.0
2017-Dec-06 22:55N 38°42' W 009°10'0 0.0
2017-Dec-06 22:29N 38°42' W 009°10'0 0.0
2017-Dec-06 21:47N 38°42' W 009°10'0 0.0
2017-Dec-06 21:20N 38°42' W 009°10'0 0.0
2017-Dec-06 21:01N 38°42' W 009°10'  
2017-Dec-04 10:24N 38°42' W 009°10'0 0.3
2017-Dec-04 09:56N 38°42' W 009°09'2 4.4
2017-Dec-04 09:30N 38°43' W 009°07'0 0.3
2017-Dec-04 09:00N 38°43' W 009°07'2 1.2
2017-Dec-04 07:26N 38°42' W 009°10'0 0.0
2017-Dec-04 06:48N 38°42' W 009°10'0 0.0
2017-Dec-04 06:28N 38°42' W 009°10'0 0.0
2017-Dec-04 05:54N 38°42' W 009°10'0 0.0
2017-Dec-04 05:29N 38°42' W 009°10'0 0.0
2017-Dec-04 04:43N 38°42' W 009°10'0 0.0
2017-Dec-04 04:28N 38°42' W 009°10'0 0.0
2017-Dec-03 04:29N 38°42' W 009°10'0 0.0
2017-Dec-03 03:59N 38°42' W 009°10'0 0.0
2017-Dec-03 03:25N 38°42' W 009°10'0 0.0
2017-Dec-03 02:59N 38°42' W 009°10'0 0.0
2017-Dec-03 02:30N 38°42' W 009°10'0 0.0
2017-Dec-03 01:44N 38°42' W 009°10'0 0.0
2017-Dec-03 01:28N 38°42' W 009°10'0 0.0
2017-Dec-03 00:47N 38°42' W 009°10'0 0.0
2017-Dec-03 00:28N 38°42' W 009°10'0 0.0
2017-Dec-02 03:25N 38°42' W 009°10'0 0.0
2017-Dec-02 02:57N 38°42' W 009°10'0 0.0
2017-Dec-02 02:30N 38°42' W 009°10'0 0.0
2017-Dec-02 01:45N 38°42' W 009°10'0 0.0
2017-Dec-02 01:15N 38°42' W 009°10'  

Dump ship's entire track history